Time;durP1;ratioP1;P1;durP2;ratioP2;P2;SDS_P1;SDS_P2;PMS_P1;PMS_P2;Temp;Humidity;BMP_temperature;BMP_pressure;BME280_temperature;BME280_humidity;BME280_pressure;Samples;Min_cycle;Max_cycle;Signal;HPM_P1;HPM_P2
2022/08/26 00:02:06;;;;;;;18.70;9.93;;;;;;;18.70;100.00;101351.81;5112205;28;20074;-44
2022/08/26 00:04:33;;;;;;;18.05;9.45;;;;;;;18.70;100.00;101353.56;5112863;28;20052;-43
2022/08/26 00:06:58;;;;;;;18.93;9.40;;;;;;;18.66;100.00;101352.69;5113084;28;20015;-43
2022/08/26 00:09:24;;;;;;;18.52;8.98;;;;;;;18.64;100.00;101357.00;5112220;28;20092;-42
2022/08/26 00:11:49;;;;;;;15.02;8.82;;;;;;;18.62;100.00;101361.38;5112698;28;20463;-43
2022/08/26 00:14:15;;;;;;;20.48;8.65;;;;;;;18.62;100.00;101353.53;5112897;28;20027;-43
2022/08/26 00:16:42;;;;;;;16.45;8.38;;;;;;;18.63;100.00;101357.91;5112484;28;20027;-42
2022/08/26 00:19:08;;;;;;;21.27;8.40;;;;;;;18.59;100.00;101363.94;5112580;28;20031;-44
2022/08/26 00:21:33;;;;;;;18.20;8.52;;;;;;;18.58;100.00;101364.84;5112811;28;20032;-43
2022/08/26 00:23:58;;;;;;;17.25;8.30;;;;;;;18.55;100.00;101372.63;5112205;28;20466;-42
2022/08/26 00:26:23;;;;;;;14.85;8.38;;;;;;;18.55;100.00;101372.63;5112359;28;20031;-43
2022/08/26 00:28:49;;;;;;;16.20;7.90;;;;;;;18.52;100.00;101372.63;5112803;28;20107;-44
2022/08/26 00:31:15;;;;;;;15.73;8.45;;;;;;;18.51;100.00;101376.09;5112102;28;20023;-44
2022/08/26 00:33:40;;;;;;;19.67;8.88;;;;;;;18.49;100.00;101370.88;5112645;28;20035;-43
2022/08/26 00:36:06;;;;;;;17.60;8.20;;;;;;;18.47;100.00;101369.13;5112712;28;20024;-43
2022/08/26 00:38:34;;;;;;;15.65;7.85;;;;;;;18.39;100.00;101361.25;5113243;28;20078;-42
2022/08/26 00:40:59;;;;;;;18.35;8.05;;;;;;;18.38;100.00;101368.19;5116093;28;20102;-42
2022/08/26 00:43:25;;;;;;;14.90;7.30;;;;;;;18.36;100.00;101375.16;5115914;28;20104;-43
2022/08/26 00:46:13;;;;;;;14.02;7.55;;;;;;;18.38;100.00;101375.16;5116014;28;20466;-42
2022/08/26 00:48:40;;;;;;;;;;;;;;;18.43;100.00;101384.75;5116646;28;20093;-46
2022/08/26 00:51:10;;;;;;;16.17;7.97;;;;;;;18.36;100.00;101388.19;5115591;28;19912;-42
2022/08/26 00:53:40;;;;;;;16.65;7.65;;;;;;;18.34;100.00;101387.31;5115999;28;20020;-43
2022/08/26 00:56:18;;;;;;;16.23;7.93;;;;;;;18.32;100.00;101383.84;5116017;28;20107;-44
2022/08/26 00:58:46;;;;;;;15.80;6.55;;;;;;;18.33;100.00;101382.09;5115643;28;20161;-43
2022/08/26 01:01:12;;;;;;;15.93;6.78;;;;;;;18.31;100.00;101375.97;5115399;28;20450;-43
2022/08/26 01:03:39;;;;;;;11.95;5.97;;;;;;;18.33;100.00;101372.50;5116027;28;20052;-43
2022/08/26 01:06:06;;;;;;;15.32;6.28;;;;;;;18.33;100.00;101377.72;5115179;28;20016;-42
2022/08/26 01:08:31;;;;;;;17.95;6.85;;;;;;;18.34;100.00;101376.88;5115824;28;20100;-43
2022/08/26 01:10:59;;;;;;;16.33;6.90;;;;;;;18.36;100.00;101379.47;5115741;28;20467;-44
2022/08/26 01:13:24;;;;;;;14.40;5.45;;;;;;;18.38;100.00;101376.03;5115191;28;20027;-44
2022/08/26 01:15:54;;;;;;;13.43;6.10;;;;;;;18.39;100.00;101385.59;5115712;28;20485;-42
2022/08/26 01:18:20;;;;;;;13.18;5.93;;;;;;;18.38;100.00;101370.81;5115411;28;20387;-47
2022/08/26 01:20:58;;;;;;;16.15;6.47;;;;;;;18.40;100.00;101378.66;5115009;28;20027;-43
2022/08/26 01:23:25;;;;;;;;;;;;;;;18.49;100.00;101376.09;5115547;28;20463;-48
2022/08/26 01:25:55;;;;;;;;;;;;;;;18.53;99.84;101379.59;5116104;27;19922;-42
2022/08/26 01:28:26;;;;;;;13.38;6.05;;;;;;;18.50;100.00;101379.56;5114794;28;19947;-43
2022/08/26 01:30:54;;;;;;;15.40;5.40;;;;;;;18.52;100.00;101378.72;5115479;28;20016;-43
2022/08/26 01:33:25;;;;;;;13.25;5.43;;;;;;;18.55;100.00;101378.75;5114522;28;20024;-42
2022/08/26 01:35:50;;;;;;;15.70;5.75;;;;;;;18.58;100.00;101372.66;5115255;28;20031;-48
2022/08/26 01:38:17;;;;;;;15.75;5.68;;;;;;;18.57;100.00;101369.16;5115087;28;20076;-43
2022/08/26 01:40:44;;;;;;;12.27;5.45;;;;;;;18.58;100.00;101363.09;5114673;28;20473;-43
2022/08/26 01:43:15;;;;;;;14.07;6.13;;;;;;;18.57;100.00;101371.78;5114721;28;20534;-44
2022/08/26 01:45:42;;;;;;;14.32;5.53;;;;;;;18.59;100.00;101377.88;5115143;28;20027;-47
2022/08/26 01:48:13;;;;;;;14.10;5.55;;;;;;;18.59;100.00;101380.50;5114380;28;20058;-44
2022/08/26 01:50:39;;;;;;;12.50;5.20;;;;;;;18.60;100.00;101381.38;5113856;28;20040;-44
2022/08/26 01:53:11;;;;;;;12.50;5.55;;;;;;;18.62;100.00;101384.88;5115147;28;20374;-46
2022/08/26 01:55:40;;;;;;;13.70;5.32;;;;;;;18.62;100.00;101387.47;5114470;28;20032;-46
2022/08/26 01:58:10;;;;;;;12.98;5.32;;;;;;;18.62;100.00;101382.25;5114565;28;20032;-42
2022/08/26 02:00:36;;;;;;;10.77;5.07;;;;;;;18.61;100.00;101377.88;5114675;28;20378;-48
2022/08/26 02:03:16;;;;;;;14.57;4.68;;;;;;;18.60;100.00;101386.59;5114391;28;20020;-43
2022/08/26 02:05:47;;;;;;;11.10;5.00;;;;;;;18.58;100.00;101383.13;5114506;27;20368;-45
2022/08/26 02:08:16;;;;;;;14.05;4.70;;;;;;;18.56;100.00;101380.47;5114586;28;20020;-43
2022/08/26 02:10:41;;;;;;;13.05;4.90;;;;;;;18.56;100.00;101374.38;5113870;28;20393;-46
2022/08/26 02:13:09;;;;;;;11.55;5.03;;;;;;;18.54;100.00;101378.72;5114356;28;20037;-44
2022/08/26 02:15:34;;;;;;;;;;;;;;;18.64;99.95;101377.88;5114592;28;20106;-43
2022/08/26 02:18:02;;;;;;;12.95;4.90;;;;;;;18.54;100.00;101378.72;5114238;28;20019;-43
2022/08/26 02:20:28;;;;;;;;;;;;;;;18.64;99.71;101385.72;5114610;28;20403;-44
2022/08/26 02:22:53;;;;;;;11.45;4.60;;;;;;;18.55;100.00;101388.28;5113774;28;20348;-45
2022/08/26 02:25:27;;;;;;;8.73;4.55;;;;;;;18.50;100.00;101393.50;5114340;28;20103;-47
2022/08/26 02:27:55;;;;;;;14.73;5.72;;;;;;;18.48;100.00;101381.31;5114366;28;20488;-47
2022/08/26 02:30:27;;;;;;;13.95;4.88;;;;;;;18.41;100.00;101394.31;5113723;28;20019;-45
2022/08/26 02:32:53;;;;;;;14.18;4.30;;;;;;;18.37;100.00;101392.56;5113988;28;20030;-42
2022/08/26 02:35:21;;;;;;;11.90;5.00;;;;;;;18.34;100.00;101399.50;5114257;28;20034;-46
2022/08/26 02:37:47;;;;;;;11.35;4.38;;;;;;;18.33;100.00;101398.59;5113361;28;20047;-46
2022/08/26 02:40:15;;;;;;;10.20;4.75;;;;;;;18.34;100.00;101404.72;5113799;28;20019;-45
2022/08/26 02:42:40;;;;;;;12.57;4.72;;;;;;;18.36;100.00;101408.19;5114267;28;20061;-44
2022/08/26 02:45:07;;;;;;;9.45;3.90;;;;;;;18.28;100.00;101405.53;5113447;28;20016;-43
2022/08/26 02:47:33;;;;;;;11.82;3.92;;;;;;;18.25;100.00;101410.75;5113771;28;20032;-47
2022/08/26 02:49:59;;;;;;;9.95;4.00;;;;;;;18.23;100.00;101402.00;5113841;28;20031;-43
2022/08/26 02:52:24;;;;;;;15.05;4.30;;;;;;;18.20;100.00;101400.25;5113009;28;20038;-45
2022/08/26 02:54:50;;;;;;;13.20;4.63;;;;;;;18.12;100.00;101404.56;5113826;28;20059;-44
2022/08/26 02:57:16;;;;;;;11.40;4.15;;;;;;;18.10;100.00;101399.34;5113764;28;20035;-44
2022/08/26 02:59:41;;;;;;;11.70;4.30;;;;;;;18.11;100.00;101400.19;5113110;28;20081;-43
2022/08/26 03:02:09;;;;;;;10.98;4.13;;;;;;;18.05;100.00;101397.53;5113278;28;20458;-44
2022/08/26 03:04:34;;;;;;;;;;;;;;;18.16;100.00;101401.09;5113656;28;20028;-44
2022/08/26 03:06:59;;;;;;;12.20;3.77;;;;;;;18.09;100.00;101401.94;5113348;28;19916;-44
2022/08/26 03:09:25;;;;;;;9.38;3.95;;;;;;;18.06;100.00;101400.19;5113552;28;20098;-44
2022/08/26 03:11:51;;;;;;;13.13;3.80;;;;;;;18.11;100.00;101402.81;5113172;28;20547;-44
2022/08/26 03:14:16;;;;;;;9.23;3.60;;;;;;;18.05;100.00;101397.53;5113214;28;20028;-46
2022/08/26 03:16:41;;;;;;;10.93;3.35;;;;;;;18.04;100.00;101399.28;5113584;28;20027;-44
2022/08/26 03:19:08;;;;;;;11.65;3.28;;;;;;;18.03;100.00;101394.94;5112855;28;20020;-47
2022/08/26 03:21:34;;;;;;;9.43;3.42;;;;;;;18.02;100.00;101394.94;5113009;28;20027;-44
2022/08/26 03:23:59;;;;;;;13.45;3.85;;;;;;;18.04;100.00;101398.44;5113599;28;20031;-42
2022/08/26 03:26:25;;;;;;;15.52;4.07;;;;;;;18.07;100.00;101396.69;5112754;28;20337;-43
2022/08/26 03:31:34;;;;;;;7.10;3.30;;;;;;;18.14;100.00;101399.34;5113407;28;20042;-42
2022/08/26 03:34:00;;;;;;;7.82;2.85;;;;;;;18.17;100.00;101396.78;5112694;28;20023;-45
2022/08/26 03:36:26;;;;;;;10.38;3.22;;;;;;;18.18;100.00;101403.72;5112719;28;20026;-45
2022/08/26 03:38:51;;;;;;;9.07;3.13;;;;;;;18.18;100.00;101399.41;5113119;28;20145;-44
2022/08/26 03:41:16;;;;;;;8.07;2.97;;;;;;;18.20;100.00;101407.22;5112486;28;20024;-46
2022/08/26 03:43:42;;;;;;;11.85;3.10;;;;;;;18.20;100.00;101402.00;5113173;28;20467;-44
2022/08/26 03:46:09;;;;;;;9.13;2.85;;;;;;;18.22;100.00;101410.72;5113460;28;20474;-43
2022/08/26 03:48:35;;;;;;;12.07;3.80;;;;;;;18.22;100.00;101408.13;5112758;28;20024;-44
2022/08/26 03:51:02;;;;;;;10.95;3.00;;;;;;;18.21;100.00;101412.44;5112941;28;20370;-43
2022/08/26 03:53:28;;;;;;;12.07;2.90;;;;;;;18.20;100.00;101402.88;5112874;28;20467;-43
2022/08/26 03:55:53;;;;;;;9.30;2.90;;;;;;;18.18;100.00;101409.84;5112259;28;20053;-42
2022/08/26 03:58:19;;;;;;;9.85;3.05;;;;;;;18.18;100.00;101412.44;5112947;28;20462;-46
2022/08/26 04:00:45;;;;;;;9.35;2.70;;;;;;;18.15;100.00;101406.31;5112997;28;20028;-45
2022/08/26 04:03:10;;;;;;;7.57;2.70;;;;;;;18.15;100.00;101408.94;5111999;28;20445;-47
2022/08/26 04:05:36;;;;;;;9.27;3.08;;;;;;;18.13;100.00;101405.41;5113272;28;20450;-43
2022/08/26 04:08:01;;;;;;;8.10;2.70;;;;;;;18.14;100.00;101410.69;5112430;28;20034;-44
2022/08/26 04:10:27;;;;;;;9.93;3.00;;;;;;;18.18;100.00;101398.50;5112605;28;20032;-46
2022/08/26 04:12:52;;;;;;;10.93;3.33;;;;;;;18.19;100.00;101405.47;5113398;28;20023;-44
2022/08/26 04:15:18;;;;;;;10.75;2.92;;;;;;;18.22;100.00;101405.50;5116218;28;20391;-45
2022/08/26 04:17:44;;;;;;;8.32;2.67;;;;;;;18.24;100.00;101407.28;5116567;28;20030;-44
2022/08/26 04:20:12;;;;;;;12.48;2.83;;;;;;;18.26;100.00;101402.06;5116713;28;20023;-44
2022/08/26 04:22:38;;;;;;;10.10;2.75;;;;;;;18.26;100.00;101402.06;5116419;28;20023;-43
2022/08/26 04:25:04;;;;;;;7.05;2.25;;;;;;;18.30;100.00;101395.13;5116653;28;20031;-46
2022/08/26 04:27:29;;;;;;;8.98;2.70;;;;;;;18.34;100.00;101402.09;5116611;28;20036;-45
2022/08/26 04:29:54;;;;;;;7.60;2.40;;;;;;;18.34;100.00;101396.88;5116114;28;20035;-44
2022/08/26 04:32:21;;;;;;;12.90;3.08;;;;;;;18.35;100.00;101404.72;5116051;28;20049;-45
2022/08/26 04:34:46;;;;;;;10.82;2.72;;;;;;;18.36;100.00;101409.09;5116792;28;20027;-44
2022/08/26 04:37:12;;;;;;;10.48;2.72;;;;;;;18.40;100.00;101410.84;5115363;28;20043;-45
2022/08/26 04:39:37;;;;;;;10.55;2.70;;;;;;;18.40;100.00;101407.38;5116424;28;20028;-43
2022/08/26 04:42:03;;;;;;;8.30;2.60;;;;;;;18.39;100.00;101406.47;5116261;28;20466;-43
2022/08/26 04:44:29;;;;;;;12.25;2.42;;;;;;;18.40;100.00;101408.22;5115426;28;20020;-46
2022/08/26 04:46:55;;;;;;;11.32;3.28;;;;;;;18.42;100.00;101403.91;5116033;28;20077;-45
2022/08/26 04:49:20;;;;;;;9.55;2.47;;;;;;;18.43;100.00;101416.06;5116022;28;20467;-42
2022/08/26 04:51:47;;;;;;;11.35;2.90;;;;;;;18.45;100.00;101415.22;5115849;28;20023;-44
2022/08/26 04:54:13;;;;;;;7.10;2.30;;;;;;;18.45;100.00;101416.09;5115852;27;20097;-46
2022/08/26 04:56:41;;;;;;;12.23;2.80;;;;;;;18.49;100.00;101422.19;5116187;28;20379;-44
2022/08/26 04:59:08;;;;;;;10.77;2.63;;;;;;;18.51;100.00;101421.34;5115255;28;20023;-46
2022/08/26 05:01:34;;;;;;;9.95;2.90;;;;;;;18.51;100.00;101423.94;5115730;28;20028;-43
2022/08/26 05:04:00;;;;;;;11.57;3.17;;;;;;;18.50;100.00;101421.34;5116256;28;20015;-43
2022/08/26 05:06:25;;;;;;;7.88;3.13;;;;;;;18.49;100.00;101419.56;5114986;28;20035;-47
2022/08/26 05:08:51;;;;;;;10.23;3.63;;;;;;;18.47;100.00;101426.53;5115791;28;20031;-44
2022/08/26 05:11:16;;;;;;;15.88;3.67;;;;;;;18.46;100.00;101423.03;5115116;28;20047;-44
2022/08/26 05:13:41;;;;;;;16.67;3.63;;;;;;;18.43;100.00;101423.03;5115580;28;20027;-47
2022/08/26 05:16:09;;;;;;;10.98;3.40;;;;;;;18.43;100.00;101425.66;5115415;28;20027;-46
2022/08/26 05:18:38;;;;;;;9.00;3.78;;;;;;;18.39;100.00;101424.75;5115506;27;20105;-44
2022/08/26 05:21:04;;;;;;;14.63;4.32;;;;;;;18.38;100.00;101422.13;5115454;28;20031;-44
2022/08/26 05:23:30;;;;;;;9.98;3.60;;;;;;;18.35;100.00;101420.38;5115300;28;20452;-43
2022/08/26 05:25:58;;;;;;;10.65;3.60;;;;;;;18.37;100.00;101426.50;5114946;27;20030;-42
2022/08/26 05:28:24;;;;;;;9.20;3.50;;;;;;;18.40;100.00;101426.50;5115058;28;20059;-43
2022/08/26 05:30:50;;;;;;;12.55;4.38;;;;;;;18.40;100.00;101421.28;5115478;28;20065;-44
2022/08/26 05:33:16;;;;;;;9.48;3.50;;;;;;;18.45;100.00;101423.03;5114730;28;20061;-45
2022/08/26 05:35:43;;;;;;;10.00;3.47;;;;;;;18.48;100.00;101423.94;5115272;28;20027;-44
2022/08/26 05:38:13;;;;;;;12.30;3.60;;;;;;;18.50;100.00;101432.66;5115100;28;20120;-44
2022/08/26 05:40:42;;;;;;;11.57;3.95;;;;;;;18.54;100.00;101434.41;5114565;28;20356;-43
2022/08/26 05:43:10;;;;;;;13.63;3.90;;;;;;;18.54;100.00;101433.53;5114752;28;20023;-43
2022/08/26 05:45:37;;;;;;;13.18;3.55;;;;;;;18.58;100.00;101436.19;5115289;28;20028;-47
2022/08/26 05:48:06;;;;;;;11.70;3.95;;;;;;;18.63;100.00;101436.22;5114250;28;20477;-43
2022/08/26 05:50:36;;;;;;;9.60;3.38;;;;;;;18.63;100.00;101441.44;5115092;28;20031;-45
2022/08/26 05:53:01;;;;;;;10.80;3.22;;;;;;;18.66;99.98;101444.06;5115041;28;20466;-45
2022/08/26 05:55:27;;;;;;;12.40;3.40;;;;;;;18.75;99.60;101449.31;5114026;28;20024;-43
2022/08/26 05:57:52;;;;;;;9.38;2.70;;;;;;;18.84;99.42;101452.88;5114853;28;20484;-42
2022/08/26 06:00:17;;;;;;;12.23;3.35;;;;;;;18.90;99.06;101452.91;5114716;28;20032;-46
2022/08/26 06:02:42;;;;;;;10.15;3.20;;;;;;;18.94;99.01;101465.13;5114209;28;20104;-43
2022/08/26 06:05:08;;;;;;;11.52;3.13;;;;;;;19.00;98.31;101459.91;5114477;28;20055;-43
2022/08/26 06:10:17;;;;;;;9.88;2.80;;;;;;;19.10;97.81;101467.81;5114525;28;20188;-45
2022/08/26 06:12:42;;;;;;;11.05;2.67;;;;;;;19.18;97.50;101471.31;5114916;28;20445;-45
2022/08/26 06:15:08;;;;;;;8.93;3.00;;;;;;;19.19;96.31;101471.31;5113779;28;20035;-43
2022/08/26 06:17:33;;;;;;;10.80;2.70;;;;;;;19.24;95.93;101485.28;5114281;28;20031;-43
2022/08/26 06:19:59;;;;;;;7.32;2.33;;;;;;;19.28;96.09;101480.94;5114584;28;20023;-43
2022/08/26 06:27:52;;;;;;;10.98;2.40;;;;;;;19.44;94.60;101471.41;5114418;28;20039;-43
2022/08/26 06:30:18;;;;;;;9.40;2.42;;;;;;;19.46;93.48;101477.53;5113238;27;20024;-43
2022/08/26 06:32:44;;;;;;;12.02;2.38;;;;;;;19.56;93.73;101481.00;5114358;28;20463;-42
2022/08/26 06:35:10;;;;;;;6.20;1.90;;;;;;;19.51;92.85;101480.13;5113796;28;20424;-43
2022/08/26 06:37:35;;;;;;;6.95;2.40;;;;;;;19.47;92.77;101481.00;5112612;28;20126;-43
2022/08/26 06:40:00;;;;;;;5.95;1.73;;;;;;;19.56;92.88;101491.47;5114184;28;20039;-43
2022/08/26 06:42:25;;;;;;;6.60;1.65;;;;;;;19.55;92.19;101485.38;5113933;28;20032;-43
2022/08/26 06:44:51;;;;;;;9.38;2.17;;;;;;;19.54;92.40;101490.59;5113387;28;20024;-42
2022/08/26 06:47:16;;;;;;;4.85;1.80;;;;;;;19.66;92.07;101489.75;5113608;28;20024;-43
2022/08/26 06:49:41;;;;;;;4.40;1.63;;;;;;;19.74;91.32;101496.75;5113374;28;20106;-43
2022/08/26 06:52:07;;;;;;;7.15;1.92;;;;;;;19.77;90.92;101495.00;5113401;28;20023;-44
2022/08/26 06:54:32;;;;;;;7.68;2.03;;;;;;;19.88;90.81;101498.53;5113944;28;20030;-43
2022/08/26 06:56:58;;;;;;;6.70;2.30;;;;;;;19.82;90.19;101493.28;5113211;28;20024;-43
2022/08/26 06:59:24;;;;;;;7.25;1.80;;;;;;;19.83;90.01;101495.06;5113491;28;20031;-42
2022/08/26 07:01:49;;;;;;;7.95;1.80;;;;;;;19.83;90.42;101493.31;5113826;28;20040;-43
2022/08/26 07:04:15;;;;;;;7.57;1.70;;;;;;;19.90;90.48;101502.06;5112855;28;20024;-45
2022/08/26 07:06:41;;;;;;;6.70;1.83;;;;;;;19.93;89.59;101506.41;5113534;28;20027;-46
2022/08/26 07:09:08;;;;;;;8.32;1.70;;;;;;;19.99;88.91;101493.34;5113647;28;20048;-46
2022/08/26 07:11:35;;;;;;;8.27;1.90;;;;;;;19.90;89.05;101494.19;5113104;28;20028;-42
2022/08/26 07:14:01;;;;;;;7.50;2.03;;;;;;;20.07;89.20;101500.31;5113582;28;20065;-43
2022/08/26 07:16:28;;;;;;;6.78;1.83;;;;;;;20.04;87.92;101502.06;5113307;28;20028;-42
2022/08/26 07:18:54;;;;;;;8.98;1.60;;;;;;;20.06;88.01;101493.34;5112917;28;20479;-46
2022/08/26 07:21:21;;;;;;;6.95;1.98;;;;;;;20.03;87.36;101498.56;5112775;28;20035;-43
2022/08/26 07:23:47;;;;;;;11.52;2.20;;;;;;;20.02;87.21;101499.44;5113602;28;20030;-43
2022/08/26 07:26:16;;;;;;;7.57;1.65;;;;;;;20.12;88.27;101504.69;5112400;28;20463;-44
2022/08/26 07:28:43;;;;;;;7.20;1.70;;;;;;;20.09;87.44;101507.28;5113337;28;20463;-43
2022/08/26 07:31:10;;;;;;;6.85;1.70;;;;;;;20.17;86.59;101509.03;5113227;28;20457;-47
2022/08/26 07:33:37;;;;;;;9.30;1.92;;;;;;;20.21;86.57;101518.63;5112512;28;20016;-43
2022/08/26 07:36:03;;;;;;;8.90;2.00;;;;;;;20.23;86.30;101511.66;5113491;28;20031;-45
2022/08/26 07:38:28;;;;;;;8.75;2.30;;;;;;;20.26;86.34;101508.19;5112869;28;20043;-48
2022/08/26 07:40:53;;;;;;;8.50;1.90;;;;;;;20.35;85.42;101513.41;5112360;28;20059;-45
2022/08/26 07:43:19;;;;;;;7.55;1.92;;;;;;;20.46;85.27;101515.16;5112974;28;20024;-47
2022/08/26 07:45:44;;;;;;;8.52;2.05;;;;;;;20.46;84.74;101517.75;5113197;28;20043;-47
2022/08/26 07:48:10;;;;;;;8.02;2.03;;;;;;;20.49;83.59;101512.50;5113003;28;20062;-47
2022/08/26 07:50:35;;;;;;;8.10;2.05;;;;;;;20.65;83.81;101519.47;5117701;28;20055;-44
2022/08/26 07:53:02;;;;;;;8.38;1.60;;;;;;;20.74;83.30;101523.00;5117072;28;20539;-44
2022/08/26 07:55:28;;;;;;;7.47;1.67;;;;;;;20.91;82.90;101523.81;5117055;28;20038;-45
2022/08/26 07:57:55;;;;;;;6.30;1.98;;;;;;;20.97;82.85;101520.34;5117475;28;20023;-46
2022/08/26 08:00:20;;;;;;;10.38;2.03;;;;;;;21.00;81.63;101515.06;5116337;28;20023;-48
2022/08/26 08:02:46;;;;;;;9.13;2.47;;;;;;;20.93;81.00;101519.47;5116946;28;20030;-46
2022/08/26 08:05:13;;;;;;;7.65;1.75;;;;;;;20.85;81.47;101529.06;5117181;28;20382;-43
2022/08/26 08:07:39;;;;;;;9.52;1.65;;;;;;;20.84;81.56;101527.34;5116757;28;20039;-48
2022/08/26 08:10:06;;;;;;;8.43;1.88;;;;;;;20.77;81.47;101528.22;5116993;28;20026;-48
2022/08/26 08:12:31;;;;;;;9.95;1.83;;;;;;;20.81;80.81;101527.34;5116990;28;20179;-43
2022/08/26 08:14:56;;;;;;;7.53;1.85;;;;;;;20.91;81.82;101529.06;5116716;28;20432;-43
2022/08/26 08:17:21;;;;;;;8.02;1.70;;;;;;;20.89;81.41;101538.69;5116271;28;20024;-44
2022/08/26 08:19:47;;;;;;;8.35;1.95;;;;;;;20.86;80.55;101536.97;5117044;28;20023;-47
2022/08/26 08:22:12;;;;;;;7.22;1.73;;;;;;;20.85;80.39;101531.69;5115865;28;20100;-45
2022/08/26 08:24:38;;;;;;;7.95;1.45;;;;;;;20.89;80.44;101533.47;5116663;28;20019;-48
2022/08/26 08:27:03;;;;;;;7.10;1.70;;;;;;;20.88;80.44;101526.47;5116830;28;20031;-45
2022/08/26 08:29:29;;;;;;;7.88;1.70;;;;;;;20.78;79.71;101540.47;5115745;28;20957;-45
2022/08/26 08:31:55;;;;;;;7.20;2.20;;;;;;;20.74;80.23;101536.09;5116518;28;20386;-47
2022/08/26 08:34:21;;;;;;;4.72;1.20;;;;;;;20.74;79.90;101539.59;5116546;28;20020;-45
2022/08/26 08:36:46;;;;;;;7.28;1.88;;;;;;;20.79;80.46;101542.22;5115887;28;20030;-46
2022/08/26 08:39:12;;;;;;;6.38;1.63;;;;;;;20.88;80.46;101547.44;5116176;28;20043;-47
2022/08/26 08:42:04;;;;;;;6.28;2.10;;;;;;;20.94;80.45;101544.81;5116855;28;20051;-42
2022/08/26 08:44:31;;;;;;;6.82;1.77;;;;;;;20.89;80.24;101549.19;5115337;28;20497;-43
2022/08/26 08:47:02;;;;;;;10.15;1.92;;;;;;;20.82;79.74;101542.19;5116559;28;20023;-46
2022/08/26 08:49:29;;;;;;;7.35;1.70;;;;;;;20.79;79.92;101532.59;5115497;28;20371;-43
2022/08/26 08:52:08;;;;;;;5.93;1.30;;;;;;;20.84;79.83;101540.47;5116192;28;20105;-44
2022/08/26 08:54:33;;;;;;;6.85;1.50;;;;;;;20.79;78.85;101536.97;5116200;28;20023;-44
2022/08/26 08:57:02;;;;;;;6.57;1.20;;;;;;;20.81;78.98;101545.69;5115582;28;20024;-43
2022/08/26 08:59:34;;;;;;;5.68;1.40;;;;;;;20.97;78.50;101536.91;5115196;28;20028;-44
2022/08/26 09:02:09;;;;;;;9.05;1.77;;;;;;;21.13;78.15;101539.50;5116094;28;20043;-45
2022/08/26 09:05:02;;;;;;;6.32;1.50;;;;;;;21.27;77.31;101547.31;5115308;27;20027;-47
2022/08/26 09:07:35;;;;;;;7.57;1.90;;;;;;;21.32;77.07;101549.03;5115728;28;20479;-42
2022/08/26 09:10:23;;;;;;;7.70;1.55;;;;;;;21.36;75.49;101549.91;5116208;28;20046;-48
2022/08/26 09:12:49;;;;;;;9.10;1.90;;;;;;;21.27;76.17;101548.19;5115727;28;20026;-42
2022/08/26 09:15:22;;;;;;;6.38;1.60;;;;;;;21.20;77.04;101543.81;5115702;28;20074;-44
2022/08/26 09:17:59;;;;;;;9.15;1.92;;;;;;;21.17;76.77;101549.94;5115217;28;20467;-44
2022/08/26 09:20:58;;;;;;;10.02;1.70;;;;;;;21.21;77.45;101553.44;5115148;28;20473;-44
2022/08/26 09:23:25;;;;;;;10.38;1.90;;;;;;;20.97;77.64;101555.25;5081672;28;20027;-48
2022/08/26 09:25:57;;;;;;;8.35;1.90;;;;;;;20.83;77.01;101549.19;5114871;28;20049;-44
2022/08/26 09:28:25;;;;;;;9.57;2.25;;;;;;;20.76;77.74;101552.69;5115189;27;20027;-45
2022/08/26 09:31:19;;;;;;;9.35;2.05;;;;;;;20.86;77.77;101554.41;5115813;28;20024;-44
2022/08/26 09:33:44;;;;;;;10.27;1.67;;;;;;;20.84;77.61;101553.56;5108697;28;20040;-42
2022/08/26 09:36:17;;;;;;;6.63;1.52;;;;;;;20.99;77.12;101545.66;5115214;28;20479;-45
2022/08/26 09:38:43;;;;;;;10.02;1.70;;;;;;;21.04;76.95;101559.63;5114578;28;20122;-42
2022/08/26 09:41:30;;;;;;;7.97;1.48;;;;;;;21.10;77.31;101563.97;5115034;28;20039;-47
2022/08/26 09:44:08;;;;;;;8.77;1.80;;;;;;;21.08;77.10;101560.47;5115467;28;20111;-47
2022/08/26 09:46:34;;;;;;;9.05;1.77;;;;;;;20.83;77.00;101564.91;5114373;28;20030;-46
2022/08/26 09:49:20;;;;;;;10.60;1.65;;;;;;;20.84;77.76;101572.75;5115035;28;20098;-44
2022/08/26 09:51:45;;;;;;;7.87;1.77;;;;;;;20.70;77.71;101564.03;5115284;28;20118;-47
2022/08/26 09:54:25;;;;;;;9.38;2.35;;;;;;;20.71;78.56;101566.66;5113967;28;20034;-44
2022/08/26 09:56:51;;;;;;;7.75;2.22;;;;;;;20.66;78.96;101563.13;5115220;28;20058;-43
2022/08/26 09:59:29;;;;;;;10.05;2.10;;;;;;;20.66;78.85;101559.66;5114779;28;20051;-43
2022/08/26 10:01:54;;;;;;;9.10;2.28;;;;;;;20.55;78.83;101555.31;5114284;27;20363;-46
2022/08/26 10:04:22;;;;;;;8.73;1.63;;;;;;;20.45;79.10;101574.50;5114512;28;20521;-45
2022/08/26 10:06:59;;;;;;;8.80;1.98;;;;;;;20.39;79.24;101570.13;5114344;28;20054;-47
2022/08/26 10:09:25;;;;;;;;;;;;;;;20.52;78.17;101565.75;5114607;28;20415;-46
2022/08/26 10:11:56;;;;;;;11.02;1.85;;;;;;;20.28;79.47;101568.38;5113778;28;20381;-46
2022/08/26 10:14:46;;;;;;;8.25;1.65;;;;;;;20.28;78.99;101577.09;5114058;28;20031;-48
2022/08/26 10:17:26;;;;;;;10.20;2.03;;;;;;;20.28;79.46;101577.09;5114399;28;20028;-47
2022/08/26 10:19:58;;;;;;;10.82;1.67;;;;;;;20.31;78.94;101574.50;5114701;28;20068;-44
2022/08/26 10:22:31;;;;;;;7.78;1.55;;;;;;;20.36;78.19;101575.38;5113304;28;20122;-46
2022/08/26 10:25:02;;;;;;;9.77;1.50;;;;;;;20.44;78.77;101577.09;5114694;28;20023;-48
2022/08/26 10:27:42;;;;;;;7.65;1.80;;;;;;;20.48;78.41;101573.63;5114354;27;20118;-46
2022/08/26 10:30:15;;;;;;;6.30;1.67;;;;;;;20.50;77.82;101572.75;5114047;28;20023;-42
2022/08/26 10:32:46;;;;;;;8.77;1.45;;;;;;;20.58;78.95;101569.25;5114378;28;20031;-43
2022/08/26 10:35:13;;;;;;;8.02;1.42;;;;;;;20.65;77.87;101565.75;5113709;28;20032;-44
2022/08/26 10:37:46;;;;;;;10.32;1.75;;;;;;;20.78;77.13;101571.91;5114010;28;20122;-43
2022/08/26 10:40:28;;;;;;;8.30;1.67;;;;;;;20.89;77.13;101568.38;5114066;28;20024;-44
2022/08/26 10:43:00;;;;;;;7.90;1.67;;;;;;;20.84;76.58;101566.66;5113317;28;20020;-43
2022/08/26 10:45:28;;;;;;;7.93;1.50;;;;;;;20.84;76.46;101562.28;5113757;28;20035;-43
2022/08/26 10:48:06;;;;;;;11.10;2.53;;;;;;;20.86;76.63;101562.25;5114068;28;20466;-47
2022/08/26 10:50:36;;;;;;;12.35;1.60;;;;;;;20.81;76.12;101572.78;5113244;28;20019;-45
2022/08/26 10:53:07;;;;;;;9.35;2.05;;;;;;;20.86;76.22;101565.78;5114138;28;20020;-43
2022/08/26 10:55:50;;;;;;;7.93;1.70;;;;;;;20.95;76.30;101562.25;5113837;28;20076;-43
2022/08/26 10:58:39;;;;;;;6.95;1.60;;;;;;;21.02;76.18;101566.59;5113600;28;20032;-44
2022/08/26 11:04:11;;;;;;;7.80;1.40;;;;;;;21.17;75.65;101565.69;5112889;28;20084;-43
2022/08/26 11:06:37;;;;;;;7.40;1.67;;;;;;;21.12;75.20;101572.72;5113856;28;20050;-43
2022/08/26 11:09:05;;;;;;;8.05;1.60;;;;;;;21.06;75.22;101577.97;5113789;28;20020;-47
2022/08/26 11:11:39;;;;;;;8.95;1.98;;;;;;;20.98;75.94;101575.34;5112564;28;20422;-43
2022/08/26 11:14:09;;;;;;;7.10;1.65;;;;;;;20.90;76.31;101579.72;5113650;28;20020;-44
2022/08/26 11:16:42;;;;;;;9.32;1.70;;;;;;;20.71;76.08;101581.50;5113438;28;20424;-42
2022/08/26 11:19:09;;;;;;;9.70;2.00;;;;;;;20.67;76.74;101575.38;5112815;28;20020;-44
2022/08/26 11:21:51;;;;;;;9.00;1.98;;;;;;;20.64;76.30;101570.09;5113533;28;20020;-47
2022/08/26 11:24:59;;;;;;;9.50;1.65;;;;;;;20.79;76.71;101573.66;5112716;28;20027;-47
2022/08/26 11:27:24;;;;;;;8.98;1.90;;;;;;;20.78;77.21;101566.66;5113059;28;20030;-47
2022/08/26 11:30:32;;;;;;;10.93;1.93;;;;;;;20.85;76.61;101569.28;5113494;28;20023;-43
2022/08/26 11:32:58;;;;;;;7.97;1.60;;;;;;;20.81;76.51;101562.28;5112814;28;20296;-43
2022/08/26 11:35:23;;;;;;;13.38;1.98;;;;;;;20.82;75.97;101568.41;5113084;28;20474;-43
2022/08/26 11:38:17;;;;;;;8.83;1.70;;;;;;;20.97;76.21;101567.50;5113333;28;20092;-46
2022/08/26 11:40:42;;;;;;;8.68;1.90;;;;;;;21.04;75.84;101562.25;5113100;28;20051;-45